sensor_id;sensor_type;location;lat;lon;timestamp;P1;durP1;ratioP1;P2;durP2;ratioP2
14766;SDS011;7475;53.558;9.970;2023-03-03T00:01:34;39.30;;;21.23;;
14766;SDS011;7475;53.558;9.970;2023-03-03T00:03:59;40.30;;;20.80;;
14766;SDS011;7475;53.558;9.970;2023-03-03T00:06:24;43.00;;;22.83;;
14766;SDS011;7475;53.558;9.970;2023-03-03T00:08:49;42.03;;;21.97;;
14766;SDS011;7475;53.558;9.970;2023-03-03T00:11:15;40.60;;;22.33;;
14766;SDS011;7475;53.558;9.970;2023-03-03T00:13:50;43.47;;;22.27;;
14766;SDS011;7475;53.558;9.970;2023-03-03T00:16:20;45.10;;;22.43;;
14766;SDS011;7475;53.558;9.970;2023-03-03T00:18:46;51.07;;;22.77;;
14766;SDS011;7475;53.558;9.970;2023-03-03T00:21:21;42.73;;;20.90;;
14766;SDS011;7475;53.558;9.970;2023-03-03T00:23:47;69.60;;;23.10;;
14766;SDS011;7475;53.558;9.970;2023-03-03T00:26:15;63.07;;;22.43;;
14766;SDS011;7475;53.558;9.970;2023-03-03T00:31:11;68.30;;;22.40;;
14766;SDS011;7475;53.558;9.970;2023-03-03T00:33:42;57.70;;;21.43;;
14766;SDS011;7475;53.558;9.970;2023-03-03T00:38:39;89.67;;;22.23;;
14766;SDS011;7475;53.558;9.970;2023-03-03T00:41:13;60.23;;;21.80;;
14766;SDS011;7475;53.558;9.970;2023-03-03T00:43:40;72.33;;;21.93;;
14766;SDS011;7475;53.558;9.970;2023-03-03T00:46:07;56.47;;;22.63;;
14766;SDS011;7475;53.558;9.970;2023-03-03T00:51:09;46.83;;;22.47;;
14766;SDS011;7475;53.558;9.970;2023-03-03T00:53:36;47.50;;;21.27;;
14766;SDS011;7475;53.558;9.970;2023-03-03T00:56:01;71.73;;;22.17;;
14766;SDS011;7475;53.558;9.970;2023-03-03T00:58:26;70.83;;;22.40;;
14766;SDS011;7475;53.558;9.970;2023-03-03T01:00:52;70.33;;;22.43;;
14766;SDS011;7475;53.558;9.970;2023-03-03T01:03:19;56.20;;;21.80;;
14766;SDS011;7475;53.558;9.970;2023-03-03T01:05:45;66.60;;;22.43;;
14766;SDS011;7475;53.558;9.970;2023-03-03T01:08:11;71.30;;;22.10;;
14766;SDS011;7475;53.558;9.970;2023-03-03T01:10:37;87.37;;;22.67;;
14766;SDS011;7475;53.558;9.970;2023-03-03T01:13:04;85.97;;;22.07;;
14766;SDS011;7475;53.558;9.970;2023-03-03T01:15:29;94.30;;;21.87;;
14766;SDS011;7475;53.558;9.970;2023-03-03T01:17:55;68.20;;;21.37;;
14766;SDS011;7475;53.558;9.970;2023-03-03T01:20:20;87.03;;;22.20;;
14766;SDS011;7475;53.558;9.970;2023-03-03T01:22:48;71.83;;;21.73;;
14766;SDS011;7475;53.558;9.970;2023-03-03T01:25:14;64.17;;;21.57;;
14766;SDS011;7475;53.558;9.970;2023-03-03T01:27:39;63.90;;;21.77;;
14766;SDS011;7475;53.558;9.970;2023-03-03T01:30:04;40.47;;;19.97;;
14766;SDS011;7475;53.558;9.970;2023-03-03T01:32:30;47.97;;;19.80;;
14766;SDS011;7475;53.558;9.970;2023-03-03T01:34:55;52.37;;;19.87;;
14766;SDS011;7475;53.558;9.970;2023-03-03T01:37:21;45.03;;;20.47;;
14766;SDS011;7475;53.558;9.970;2023-03-03T01:39:47;53.67;;;21.67;;
14766;SDS011;7475;53.558;9.970;2023-03-03T01:42:12;86.53;;;20.93;;
14766;SDS011;7475;53.558;9.970;2023-03-03T01:44:37;122.03;;;23.40;;
14766;SDS011;7475;53.558;9.970;2023-03-03T01:47:06;78.03;;;20.00;;
14766;SDS011;7475;53.558;9.970;2023-03-03T01:49:35;136.53;;;20.37;;
14766;SDS011;7475;53.558;9.970;2023-03-03T01:52:08;63.93;;;19.63;;
14766;SDS011;7475;53.558;9.970;2023-03-03T01:54:35;45.20;;;19.53;;
14766;SDS011;7475;53.558;9.970;2023-03-03T01:57:02;74.10;;;20.80;;
14766;SDS011;7475;53.558;9.970;2023-03-03T01:59:33;82.27;;;21.10;;
14766;SDS011;7475;53.558;9.970;2023-03-03T02:02:00;45.77;;;20.53;;
14766;SDS011;7475;53.558;9.970;2023-03-03T02:04:26;48.53;;;21.13;;
14766;SDS011;7475;53.558;9.970;2023-03-03T02:06:52;72.57;;;22.53;;
14766;SDS011;7475;53.558;9.970;2023-03-03T02:09:40;48.87;;;21.53;;
14766;SDS011;7475;53.558;9.970;2023-03-03T02:12:07;60.47;;;22.00;;
14766;SDS011;7475;53.558;9.970;2023-03-03T02:14:34;95.40;;;22.33;;
14766;SDS011;7475;53.558;9.970;2023-03-03T02:16:59;110.07;;;20.77;;
14766;SDS011;7475;53.558;9.970;2023-03-03T02:22:08;120.23;;;22.53;;
14766;SDS011;7475;53.558;9.970;2023-03-03T02:24:44;71.43;;;20.63;;
14766;SDS011;7475;53.558;9.970;2023-03-03T02:27:11;93.13;;;20.30;;
14766;SDS011;7475;53.558;9.970;2023-03-03T02:29:38;39.97;;;19.57;;
14766;SDS011;7475;53.558;9.970;2023-03-03T02:32:03;83.50;;;20.80;;
14766;SDS011;7475;53.558;9.970;2023-03-03T02:34:28;39.33;;;19.17;;
14766;SDS011;7475;53.558;9.970;2023-03-03T02:36:53;43.40;;;19.07;;
14766;SDS011;7475;53.558;9.970;2023-03-03T02:39:19;44.67;;;18.20;;
14766;SDS011;7475;53.558;9.970;2023-03-03T02:41:47;60.40;;;18.57;;
14766;SDS011;7475;53.558;9.970;2023-03-03T02:44:19;38.47;;;18.00;;
14766;SDS011;7475;53.558;9.970;2023-03-03T02:46:45;47.40;;;18.47;;
14766;SDS011;7475;53.558;9.970;2023-03-03T02:49:12;130.20;;;19.30;;
14766;SDS011;7475;53.558;9.970;2023-03-03T02:51:38;40.80;;;17.47;;
14766;SDS011;7475;53.558;9.970;2023-03-03T02:54:03;70.30;;;18.20;;
14766;SDS011;7475;53.558;9.970;2023-03-03T02:56:29;82.37;;;18.63;;
14766;SDS011;7475;53.558;9.970;2023-03-03T02:58:54;79.47;;;18.73;;
14766;SDS011;7475;53.558;9.970;2023-03-03T03:01:20;53.63;;;19.23;;
14766;SDS011;7475;53.558;9.970;2023-03-03T03:03:45;74.40;;;17.87;;
14766;SDS011;7475;53.558;9.970;2023-03-03T03:06:10;93.27;;;18.17;;
14766;SDS011;7475;53.558;9.970;2023-03-03T03:08:35;67.37;;;18.53;;
14766;SDS011;7475;53.558;9.970;2023-03-03T03:11:01;76.37;;;19.17;;
14766;SDS011;7475;53.558;9.970;2023-03-03T03:13:26;66.43;;;18.90;;
14766;SDS011;7475;53.558;9.970;2023-03-03T03:15:51;42.23;;;18.23;;
14766;SDS011;7475;53.558;9.970;2023-03-03T03:18:16;51.70;;;18.30;;
14766;SDS011;7475;53.558;9.970;2023-03-03T03:20:42;50.43;;;17.23;;
14766;SDS011;7475;53.558;9.970;2023-03-03T03:23:07;48.53;;;17.07;;
14766;SDS011;7475;53.558;9.970;2023-03-03T03:25:32;39.53;;;15.80;;
14766;SDS011;7475;53.558;9.970;2023-03-03T03:27:58;43.17;;;16.03;;
14766;SDS011;7475;53.558;9.970;2023-03-03T03:30:23;49.30;;;16.30;;
14766;SDS011;7475;53.558;9.970;2023-03-03T03:32:48;51.83;;;16.43;;
14766;SDS011;7475;53.558;9.970;2023-03-03T03:35:13;48.53;;;17.23;;
14766;SDS011;7475;53.558;9.970;2023-03-03T03:37:39;34.57;;;16.40;;
14766;SDS011;7475;53.558;9.970;2023-03-03T03:40:05;60.43;;;17.33;;
14766;SDS011;7475;53.558;9.970;2023-03-03T03:42:30;51.50;;;16.80;;
14766;SDS011;7475;53.558;9.970;2023-03-03T03:44:55;63.10;;;17.67;;
14766;SDS011;7475;53.558;9.970;2023-03-03T03:47:20;42.07;;;17.50;;
14766;SDS011;7475;53.558;9.970;2023-03-03T03:49:45;30.80;;;15.97;;
14766;SDS011;7475;53.558;9.970;2023-03-03T03:52:11;56.70;;;16.93;;
14766;SDS011;7475;53.558;9.970;2023-03-03T03:54:36;34.30;;;17.47;;
14766;SDS011;7475;53.558;9.970;2023-03-03T03:57:01;54.97;;;15.93;;
14766;SDS011;7475;53.558;9.970;2023-03-03T03:59:26;74.73;;;16.97;;
14766;SDS011;7475;53.558;9.970;2023-03-03T04:01:51;42.77;;;16.13;;
14766;SDS011;7475;53.558;9.970;2023-03-03T04:04:17;47.83;;;16.37;;
14766;SDS011;7475;53.558;9.970;2023-03-03T04:06:42;58.90;;;17.27;;
14766;SDS011;7475;53.558;9.970;2023-03-03T04:09:07;50.10;;;17.50;;
14766;SDS011;7475;53.558;9.970;2023-03-03T04:11:32;44.80;;;17.00;;
14766;SDS011;7475;53.558;9.970;2023-03-03T04:13:57;45.37;;;16.80;;
14766;SDS011;7475;53.558;9.970;2023-03-03T04:16:23;68.13;;;17.10;;
14766;SDS011;7475;53.558;9.970;2023-03-03T04:18:48;50.90;;;17.00;;
14766;SDS011;7475;53.558;9.970;2023-03-03T04:21:13;35.93;;;16.50;;
14766;SDS011;7475;53.558;9.970;2023-03-03T04:23:39;32.77;;;15.77;;
14766;SDS011;7475;53.558;9.970;2023-03-03T04:26:04;36.27;;;16.77;;
14766;SDS011;7475;53.558;9.970;2023-03-03T04:28:29;33.43;;;18.10;;
14766;SDS011;7475;53.558;9.970;2023-03-03T04:30:54;38.73;;;17.90;;
14766;SDS011;7475;53.558;9.970;2023-03-03T04:33:20;37.30;;;16.80;;
14766;SDS011;7475;53.558;9.970;2023-03-03T04:35:45;34.00;;;17.23;;
14766;SDS011;7475;53.558;9.970;2023-03-03T04:38:10;36.60;;;17.87;;
14766;SDS011;7475;53.558;9.970;2023-03-03T04:40:35;46.23;;;17.70;;
14766;SDS011;7475;53.558;9.970;2023-03-03T04:43:00;34.90;;;16.57;;
14766;SDS011;7475;53.558;9.970;2023-03-03T04:45:25;30.40;;;18.27;;
14766;SDS011;7475;53.558;9.970;2023-03-03T04:47:51;31.10;;;17.17;;
14766;SDS011;7475;53.558;9.970;2023-03-03T04:50:16;36.17;;;17.13;;
14766;SDS011;7475;53.558;9.970;2023-03-03T04:52:41;28.30;;;17.17;;
14766;SDS011;7475;53.558;9.970;2023-03-03T04:55:06;34.67;;;18.50;;
14766;SDS011;7475;53.558;9.970;2023-03-03T04:57:32;50.33;;;19.53;;
14766;SDS011;7475;53.558;9.970;2023-03-03T04:59:57;41.77;;;17.77;;
14766;SDS011;7475;53.558;9.970;2023-03-03T05:02:22;33.73;;;19.30;;
14766;SDS011;7475;53.558;9.970;2023-03-03T05:04:47;35.80;;;18.73;;
14766;SDS011;7475;53.558;9.970;2023-03-03T05:07:13;38.53;;;18.47;;
14766;SDS011;7475;53.558;9.970;2023-03-03T05:09:38;34.60;;;19.47;;
14766;SDS011;7475;53.558;9.970;2023-03-03T05:12:03;42.90;;;20.63;;
14766;SDS011;7475;53.558;9.970;2023-03-03T05:14:28;45.17;;;20.20;;
14766;SDS011;7475;53.558;9.970;2023-03-03T05:16:55;36.90;;;20.17;;
14766;SDS011;7475;53.558;9.970;2023-03-03T05:19:20;47.77;;;21.67;;
14766;SDS011;7475;53.558;9.970;2023-03-03T05:21:45;92.37;;;20.60;;
14766;SDS011;7475;53.558;9.970;2023-03-03T05:24:11;70.33;;;20.97;;
14766;SDS011;7475;53.558;9.970;2023-03-03T05:26:37;104.67;;;22.40;;
14766;SDS011;7475;53.558;9.970;2023-03-03T05:29:02;88.90;;;22.73;;
14766;SDS011;7475;53.558;9.970;2023-03-03T05:31:27;66.83;;;21.57;;
14766;SDS011;7475;53.558;9.970;2023-03-03T05:33:53;47.77;;;22.47;;
14766;SDS011;7475;53.558;9.970;2023-03-03T05:36:18;50.70;;;23.10;;
14766;SDS011;7475;53.558;9.970;2023-03-03T05:38:43;51.93;;;22.67;;
14766;SDS011;7475;53.558;9.970;2023-03-03T05:41:09;65.47;;;20.93;;
14766;SDS011;7475;53.558;9.970;2023-03-03T05:43:34;51.17;;;22.20;;
14766;SDS011;7475;53.558;9.970;2023-03-03T05:45:59;50.80;;;21.03;;
14766;SDS011;7475;53.558;9.970;2023-03-03T05:48:24;44.30;;;21.00;;
14766;SDS011;7475;53.558;9.970;2023-03-03T05:50:50;44.10;;;21.60;;
14766;SDS011;7475;53.558;9.970;2023-03-03T05:53:15;40.43;;;21.30;;
14766;SDS011;7475;53.558;9.970;2023-03-03T05:55:40;36.83;;;22.20;;
14766;SDS011;7475;53.558;9.970;2023-03-03T05:58:05;45.90;;;20.40;;
14766;SDS011;7475;53.558;9.970;2023-03-03T06:00:30;44.47;;;21.73;;
14766;SDS011;7475;53.558;9.970;2023-03-03T06:02:56;35.00;;;19.60;;
14766;SDS011;7475;53.558;9.970;2023-03-03T06:05:21;31.73;;;19.33;;
14766;SDS011;7475;53.558;9.970;2023-03-03T06:07:46;39.90;;;20.90;;
14766;SDS011;7475;53.558;9.970;2023-03-03T06:10:11;40.63;;;20.57;;
14766;SDS011;7475;53.558;9.970;2023-03-03T06:12:37;41.93;;;21.63;;
14766;SDS011;7475;53.558;9.970;2023-03-03T06:15:03;38.00;;;20.30;;
14766;SDS011;7475;53.558;9.970;2023-03-03T06:17:28;40.43;;;20.23;;
14766;SDS011;7475;53.558;9.970;2023-03-03T06:19:53;41.47;;;20.63;;
14766;SDS011;7475;53.558;9.970;2023-03-03T06:22:18;33.13;;;18.77;;
14766;SDS011;7475;53.558;9.970;2023-03-03T06:24:44;36.43;;;19.37;;
14766;SDS011;7475;53.558;9.970;2023-03-03T06:27:09;38.13;;;19.27;;
14766;SDS011;7475;53.558;9.970;2023-03-03T06:29:34;36.10;;;20.23;;
14766;SDS011;7475;53.558;9.970;2023-03-03T06:31:59;40.87;;;21.00;;
14766;SDS011;7475;53.558;9.970;2023-03-03T06:34:25;53.03;;;21.70;;
14766;SDS011;7475;53.558;9.970;2023-03-03T06:36:50;45.03;;;22.50;;
14766;SDS011;7475;53.558;9.970;2023-03-03T06:39:16;40.60;;;21.47;;
14766;SDS011;7475;53.558;9.970;2023-03-03T06:41:41;53.37;;;23.60;;
14766;SDS011;7475;53.558;9.970;2023-03-03T06:44:06;33.10;;;19.17;;
14766;SDS011;7475;53.558;9.970;2023-03-03T06:46:32;35.40;;;19.53;;
14766;SDS011;7475;53.558;9.970;2023-03-03T06:48:57;50.43;;;18.97;;
14766;SDS011;7475;53.558;9.970;2023-03-03T06:51:32;53.60;;;17.97;;
14766;SDS011;7475;53.558;9.970;2023-03-03T06:54:00;39.63;;;18.60;;
14766;SDS011;7475;53.558;9.970;2023-03-03T06:56:26;35.67;;;18.00;;
14766;SDS011;7475;53.558;9.970;2023-03-03T06:58:58;26.30;;;15.67;;
14766;SDS011;7475;53.558;9.970;2023-03-03T07:01:24;33.37;;;17.23;;
14766;SDS011;7475;53.558;9.970;2023-03-03T07:03:49;28.23;;;16.07;;
14766;SDS011;7475;53.558;9.970;2023-03-03T07:08:42;30.27;;;16.13;;
14766;SDS011;7475;53.558;9.970;2023-03-03T07:11:10;34.50;;;15.03;;
14766;SDS011;7475;53.558;9.970;2023-03-03T07:13:36;43.77;;;16.47;;
14766;SDS011;7475;53.558;9.970;2023-03-03T07:16:08;27.93;;;15.77;;
14766;SDS011;7475;53.558;9.970;2023-03-03T07:18:38;29.90;;;16.80;;
14766;SDS011;7475;53.558;9.970;2023-03-03T07:21:05;36.03;;;17.83;;
14766;SDS011;7475;53.558;9.970;2023-03-03T07:23:37;24.03;;;14.77;;
14766;SDS011;7475;53.558;9.970;2023-03-03T07:26:13;25.47;;;15.37;;
14766;SDS011;7475;53.558;9.970;2023-03-03T07:28:43;30.40;;;14.33;;
14766;SDS011;7475;53.558;9.970;2023-03-03T07:31:28;24.47;;;14.53;;
14766;SDS011;7475;53.558;9.970;2023-03-03T07:33:55;28.20;;;15.47;;
14766;SDS011;7475;53.558;9.970;2023-03-03T07:36:23;22.70;;;13.67;;
14766;SDS011;7475;53.558;9.970;2023-03-03T07:38:53;28.10;;;14.87;;
14766;SDS011;7475;53.558;9.970;2023-03-03T07:41:19;24.90;;;14.33;;
14766;SDS011;7475;53.558;9.970;2023-03-03T07:43:54;23.40;;;13.83;;
14766;SDS011;7475;53.558;9.970;2023-03-03T07:46:33;19.97;;;13.23;;
14766;SDS011;7475;53.558;9.970;2023-03-03T07:49:19;17.93;;;12.07;;
14766;SDS011;7475;53.558;9.970;2023-03-03T07:51:45;17.97;;;11.73;;
14766;SDS011;7475;53.558;9.970;2023-03-03T07:56:41;21.10;;;11.63;;
14766;SDS011;7475;53.558;9.970;2023-03-03T07:59:25;19.97;;;10.97;;
14766;SDS011;7475;53.558;9.970;2023-03-03T08:01:52;21.63;;;12.10;;
14766;SDS011;7475;53.558;9.970;2023-03-03T08:04:20;21.13;;;12.53;;
14766;SDS011;7475;53.558;9.970;2023-03-03T08:06:48;21.23;;;12.90;;
14766;SDS011;7475;53.558;9.970;2023-03-03T08:11:48;23.40;;;13.07;;
14766;SDS011;7475;53.558;9.970;2023-03-03T08:14:15;19.53;;;12.70;;
14766;SDS011;7475;53.558;9.970;2023-03-03T08:16:42;21.27;;;11.80;;
14766;SDS011;7475;53.558;9.970;2023-03-03T08:19:09;18.77;;;12.20;;
14766;SDS011;7475;53.558;9.970;2023-03-03T08:21:35;19.07;;;12.17;;
14766;SDS011;7475;53.558;9.970;2023-03-03T08:24:00;21.07;;;13.40;;
14766;SDS011;7475;53.558;9.970;2023-03-03T08:26:26;20.67;;;13.93;;
14766;SDS011;7475;53.558;9.970;2023-03-03T08:28:51;22.60;;;13.33;;
14766;SDS011;7475;53.558;9.970;2023-03-03T08:31:16;25.10;;;15.03;;
14766;SDS011;7475;53.558;9.970;2023-03-03T08:33:42;25.30;;;14.33;;
14766;SDS011;7475;53.558;9.970;2023-03-03T08:36:07;19.40;;;12.40;;
14766;SDS011;7475;53.558;9.970;2023-03-03T08:38:32;31.87;;;13.53;;
14766;SDS011;7475;53.558;9.970;2023-03-03T08:40:58;25.67;;;13.47;;
14766;SDS011;7475;53.558;9.970;2023-03-03T08:43:23;23.87;;;12.97;;
14766;SDS011;7475;53.558;9.970;2023-03-03T08:45:50;30.10;;;17.07;;
14766;SDS011;7475;53.558;9.970;2023-03-03T08:48:15;35.37;;;18.63;;
14766;SDS011;7475;53.558;9.970;2023-03-03T08:50:40;37.57;;;20.00;;
14766;SDS011;7475;53.558;9.970;2023-03-03T08:53:06;37.03;;;19.40;;
14766;SDS011;7475;53.558;9.970;2023-03-03T08:55:32;39.73;;;18.47;;
14766;SDS011;7475;53.558;9.970;2023-03-03T08:57:57;31.57;;;17.73;;
14766;SDS011;7475;53.558;9.970;2023-03-03T09:00:23;51.40;;;18.30;;
14766;SDS011;7475;53.558;9.970;2023-03-03T09:02:49;34.33;;;16.03;;
14766;SDS011;7475;53.558;9.970;2023-03-03T09:05:14;25.73;;;15.43;;
14766;SDS011;7475;53.558;9.970;2023-03-03T09:07:40;36.23;;;15.80;;
14766;SDS011;7475;53.558;9.970;2023-03-03T09:10:06;21.57;;;13.77;;
14766;SDS011;7475;53.558;9.970;2023-03-03T09:12:35;35.43;;;14.27;;
14766;SDS011;7475;53.558;9.970;2023-03-03T09:15:24;37.03;;;14.70;;
14766;SDS011;7475;53.558;9.970;2023-03-03T09:17:48;36.67;;;17.33;;
14766;SDS011;7475;53.558;9.970;2023-03-03T09:20:33;35.50;;;17.13;;
14766;SDS011;7475;53.558;9.970;2023-03-03T09:23:20;33.87;;;18.07;;
14766;SDS011;7475;53.558;9.970;2023-03-03T09:25:44;37.27;;;20.37;;
14766;SDS011;7475;53.558;9.970;2023-03-03T09:28:18;73.37;;;18.80;;
14766;SDS011;7475;53.558;9.970;2023-03-03T09:30:47;51.30;;;17.20;;
14766;SDS011;7475;53.558;9.970;2023-03-03T09:33:21;25.87;;;15.47;;
14766;SDS011;7475;53.558;9.970;2023-03-03T09:35:49;31.37;;;16.67;;
14766;SDS011;7475;53.558;9.970;2023-03-03T09:48:47;23.03;;;15.30;;
14766;SDS011;7475;53.558;9.970;2023-03-03T09:54:10;24.00;;;15.33;;
14766;SDS011;7475;53.558;9.970;2023-03-03T09:56:31;22.00;;;14.20;;
14766;SDS011;7475;53.558;9.970;2023-03-03T10:01:46;26.27;;;13.43;;
14766;SDS011;7475;53.558;9.970;2023-03-03T10:07:06;20.53;;;13.57;;
14766;SDS011;7475;53.558;9.970;2023-03-03T10:12:19;19.93;;;11.80;;
14766;SDS011;7475;53.558;9.970;2023-03-03T10:17:50;20.40;;;13.33;;
14766;SDS011;7475;53.558;9.970;2023-03-03T10:22:51;20.27;;;11.67;;
14766;SDS011;7475;53.558;9.970;2023-03-03T10:26:05;22.23;;;11.97;;
14766;SDS011;7475;53.558;9.970;2023-03-03T10:41:10;12.18;;;8.30;;
14766;SDS011;7475;53.558;9.970;2023-03-03T10:44:03;14.30;;;9.50;;
14766;SDS011;7475;53.558;9.970;2023-03-03T10:46:28;16.52;;;10.13;;
14766;SDS011;7475;53.558;9.970;2023-03-03T10:54:21;18.52;;;11.23;;
14766;SDS011;7475;53.558;9.970;2023-03-03T11:02:07;19.00;;;11.05;;
14766;SDS011;7475;53.558;9.970;2023-03-03T11:07:20;16.35;;;10.77;;
14766;SDS011;7475;53.558;9.970;2023-03-03T11:12:46;15.02;;;11.27;;
14766;SDS011;7475;53.558;9.970;2023-03-03T11:33:46;12.82;;;8.10;;
14766;SDS011;7475;53.558;9.970;2023-03-03T11:38:53;13.93;;;8.60;;
14766;SDS011;7475;53.558;9.970;2023-03-03T11:43:57;12.77;;;7.97;;
14766;SDS011;7475;53.558;9.970;2023-03-03T11:46:57;11.73;;;8.63;;
14766;SDS011;7475;53.558;9.970;2023-03-03T11:49:19;12.52;;;8.02;;
14766;SDS011;7475;53.558;9.970;2023-03-03T11:51:52;13.32;;;8.27;;
14766;SDS011;7475;53.558;9.970;2023-03-03T11:56:47;16.25;;;8.60;;
14766;SDS011;7475;53.558;9.970;2023-03-03T12:01:40;11.18;;;7.65;;
14766;SDS011;7475;53.558;9.970;2023-03-03T12:04:09;14.45;;;8.40;;
14766;SDS011;7475;53.558;9.970;2023-03-03T12:06:58;13.20;;;8.98;;
14766;SDS011;7475;53.558;9.970;2023-03-03T12:12:02;15.07;;;8.90;;
14766;SDS011;7475;53.558;9.970;2023-03-03T12:17:34;16.38;;;8.50;;
14766;SDS011;7475;53.558;9.970;2023-03-03T12:25:22;15.02;;;8.60;;
14766;SDS011;7475;53.558;9.970;2023-03-03T12:30:46;15.77;;;8.30;;
14766;SDS011;7475;53.558;9.970;2023-03-03T12:35:49;16.70;;;8.50;;
14766;SDS011;7475;53.558;9.970;2023-03-03T12:38:19;14.68;;;8.77;;
14766;SDS011;7475;53.558;9.970;2023-03-03T12:40:54;13.43;;;8.35;;
14766;SDS011;7475;53.558;9.970;2023-03-03T12:49:00;15.75;;;6.40;;
14766;SDS011;7475;53.558;9.970;2023-03-03T12:56:25;12.93;;;5.03;;
14766;SDS011;7475;53.558;9.970;2023-03-03T12:58:53;11.40;;;4.90;;
14766;SDS011;7475;53.558;9.970;2023-03-03T13:01:39;7.43;;;3.95;;
14766;SDS011;7475;53.558;9.970;2023-03-03T13:04:11;5.07;;;2.70;;
14766;SDS011;7475;53.558;9.970;2023-03-03T13:06:41;6.40;;;3.13;;
14766;SDS011;7475;53.558;9.970;2023-03-03T13:17:01;6.50;;;2.92;;
14766;SDS011;7475;53.558;9.970;2023-03-03T13:19:30;4.95;;;3.08;;
14766;SDS011;7475;53.558;9.970;2023-03-03T13:22:03;5.00;;;2.80;;
14766;SDS011;7475;53.558;9.970;2023-03-03T13:24:34;3.88;;;2.10;;
14766;SDS011;7475;53.558;9.970;2023-03-03T13:27:06;5.38;;;2.30;;
14766;SDS011;7475;53.558;9.970;2023-03-03T13:29:40;2.22;;;1.33;;
14766;SDS011;7475;53.558;9.970;2023-03-03T13:32:11;5.82;;;1.85;;
14766;SDS011;7475;53.558;9.970;2023-03-03T13:39:53;4.93;;;1.40;;
14766;SDS011;7475;53.558;9.970;2023-03-03T13:42:28;5.50;;;1.40;;
14766;SDS011;7475;53.558;9.970;2023-03-03T13:44:55;3.92;;;1.50;;
14766;SDS011;7475;53.558;9.970;2023-03-03T13:47:27;3.03;;;1.90;;
14766;SDS011;7475;53.558;9.970;2023-03-03T13:55:29;17.67;;;7.93;;
14766;SDS011;7475;53.558;9.970;2023-03-03T13:58:07;18.38;;;7.43;;
14766;SDS011;7475;53.558;9.970;2023-03-03T14:05:47;18.58;;;9.73;;
14766;SDS011;7475;53.558;9.970;2023-03-03T14:08:39;11.52;;;4.38;;
14766;SDS011;7475;53.558;9.970;2023-03-03T14:18:54;7.80;;;2.03;;
14766;SDS011;7475;53.558;9.970;2023-03-03T14:21:25;3.30;;;1.10;;
14766;SDS011;7475;53.558;9.970;2023-03-03T14:24:09;5.25;;;1.48;;
14766;SDS011;7475;53.558;9.970;2023-03-03T14:27:13;4.88;;;1.27;;
14766;SDS011;7475;53.558;9.970;2023-03-03T14:29:31;5.97;;;2.90;;
14766;SDS011;7475;53.558;9.970;2023-03-03T14:31:57;3.25;;;0.93;;
14766;SDS011;7475;53.558;9.970;2023-03-03T14:36:56;4.32;;;1.30;;
14766;SDS011;7475;53.558;9.970;2023-03-03T14:39:32;6.03;;;1.40;;
14766;SDS011;7475;53.558;9.970;2023-03-03T14:41:57;26.65;;;3.83;;
14766;SDS011;7475;53.558;9.970;2023-03-03T14:44:30;11.60;;;1.42;;
14766;SDS011;7475;53.558;9.970;2023-03-03T14:47:04;4.45;;;1.02;;
14766;SDS011;7475;53.558;9.970;2023-03-03T14:49:36;3.90;;;1.27;;
14766;SDS011;7475;53.558;9.970;2023-03-03T14:54:36;3.50;;;1.48;;
14766;SDS011;7475;53.558;9.970;2023-03-03T14:57:06;4.82;;;0.98;;
14766;SDS011;7475;53.558;9.970;2023-03-03T14:59:31;3.97;;;1.67;;
14766;SDS011;7475;53.558;9.970;2023-03-03T15:02:42;8.57;;;1.75;;
14766;SDS011;7475;53.558;9.970;2023-03-03T15:04:43;3.90;;;1.20;;
14766;SDS011;7475;53.558;9.970;2023-03-03T15:07:29;6.60;;;1.70;;
14766;SDS011;7475;53.558;9.970;2023-03-03T15:09:55;6.95;;;1.30;;
14766;SDS011;7475;53.558;9.970;2023-03-03T15:12:37;7.38;;;1.60;;
14766;SDS011;7475;53.558;9.970;2023-03-03T15:22:45;12.32;;;4.50;;
14766;SDS011;7475;53.558;9.970;2023-03-03T15:25:25;9.10;;;3.63;;
14766;SDS011;7475;53.558;9.970;2023-03-03T15:30:31;3.03;;;1.33;;
14766;SDS011;7475;53.558;9.970;2023-03-03T15:33:06;41.35;;;24.88;;
14766;SDS011;7475;53.558;9.970;2023-03-03T15:35:56;9.25;;;2.08;;
14766;SDS011;7475;53.558;9.970;2023-03-03T15:40:54;4.68;;;1.58;;
14766;SDS011;7475;53.558;9.970;2023-03-03T15:43:27;7.45;;;1.65;;
14766;SDS011;7475;53.558;9.970;2023-03-03T15:46:08;9.07;;;3.17;;
14766;SDS011;7475;53.558;9.970;2023-03-03T15:48:41;7.70;;;1.88;;
14766;SDS011;7475;53.558;9.970;2023-03-03T15:56:27;11.00;;;2.13;;
14766;SDS011;7475;53.558;9.970;2023-03-03T16:04:07;7.80;;;1.65;;
14766;SDS011;7475;53.558;9.970;2023-03-03T16:32:03;11.88;;;2.30;;
14766;SDS011;7475;53.558;9.970;2023-03-03T16:52:12;9.55;;;2.35;;
14766;SDS011;7475;53.558;9.970;2023-03-03T16:57:35;12.00;;;2.65;;
14766;SDS011;7475;53.558;9.970;2023-03-03T17:02:52;15.93;;;4.53;;
14766;SDS011;7475;53.558;9.970;2023-03-03T17:05:34;10.30;;;2.85;;
14766;SDS011;7475;53.558;9.970;2023-03-03T17:08:21;15.88;;;2.70;;
14766;SDS011;7475;53.558;9.970;2023-03-03T17:10:55;12.95;;;3.97;;
14766;SDS011;7475;53.558;9.970;2023-03-03T17:13:32;22.23;;;7.32;;
14766;SDS011;7475;53.558;9.970;2023-03-03T17:24:02;14.80;;;3.40;;
14766;SDS011;7475;53.558;9.970;2023-03-03T17:34:19;18.80;;;4.60;;
14766;SDS011;7475;53.558;9.970;2023-03-03T17:46:53;37.22;;;16.08;;
14766;SDS011;7475;53.558;9.970;2023-03-03T17:52:07;25.83;;;7.85;;
14766;SDS011;7475;53.558;9.970;2023-03-03T17:59:41;19.10;;;4.85;;
14766;SDS011;7475;53.558;9.970;2023-03-03T18:16:01;27.35;;;9.02;;
14766;SDS011;7475;53.558;9.970;2023-03-03T18:21:15;21.38;;;5.35;;
14766;SDS011;7475;53.558;9.970;2023-03-03T18:23:45;21.55;;;6.22;;
14766;SDS011;7475;53.558;9.970;2023-03-03T18:29:09;19.45;;;4.05;;
14766;SDS011;7475;53.558;9.970;2023-03-03T18:36:54;20.85;;;3.97;;
14766;SDS011;7475;53.558;9.970;2023-03-03T18:44:33;21.23;;;6.32;;
14766;SDS011;7475;53.558;9.970;2023-03-03T18:46:58;28.67;;;7.32;;
14766;SDS011;7475;53.558;9.970;2023-03-03T18:52:24;24.65;;;4.93;;
14766;SDS011;7475;53.558;9.970;2023-03-03T18:55:00;17.85;;;3.75;;
14766;SDS011;7475;53.558;9.970;2023-03-03T18:57:25;18.52;;;3.53;;
14766;SDS011;7475;53.558;9.970;2023-03-03T18:59:55;21.70;;;3.95;;
14766;SDS011;7475;53.558;9.970;2023-03-03T19:07:28;24.95;;;3.90;;
14766;SDS011;7475;53.558;9.970;2023-03-03T19:15:07;19.52;;;4.00;;
14766;SDS011;7475;53.558;9.970;2023-03-03T19:17:56;22.90;;;4.25;;
14766;SDS011;7475;53.558;9.970;2023-03-03T19:20:22;31.55;;;8.88;;
14766;SDS011;7475;53.558;9.970;2023-03-03T19:22:49;21.35;;;3.80;;
14766;SDS011;7475;53.558;9.970;2023-03-03T19:27:42;23.67;;;5.60;;
14766;SDS011;7475;53.558;9.970;2023-03-03T19:30:14;30.05;;;9.45;;
14766;SDS011;7475;53.558;9.970;2023-03-03T19:32:58;37.83;;;13.02;;
14766;SDS011;7475;53.558;9.970;2023-03-03T19:35:36;28.00;;;8.10;;
14766;SDS011;7475;53.558;9.970;2023-03-03T19:38:08;23.00;;;5.28;;
14766;SDS011;7475;53.558;9.970;2023-03-03T19:40:50;17.08;;;4.88;;
14766;SDS011;7475;53.558;9.970;2023-03-03T19:43:31;32.35;;;8.13;;
14766;SDS011;7475;53.558;9.970;2023-03-03T19:46:12;28.63;;;8.23;;
14766;SDS011;7475;53.558;9.970;2023-03-03T19:48:47;22.83;;;6.63;;
14766;SDS011;7475;53.558;9.970;2023-03-03T19:53:52;24.48;;;6.65;;
14766;SDS011;7475;53.558;9.970;2023-03-03T19:58:54;116.93;;;54.40;;
14766;SDS011;7475;53.558;9.970;2023-03-03T20:01:28;26.48;;;6.82;;
14766;SDS011;7475;53.558;9.970;2023-03-03T20:04:04;23.95;;;8.45;;
14766;SDS011;7475;53.558;9.970;2023-03-03T20:06:46;55.53;;;24.75;;
14766;SDS011;7475;53.558;9.970;2023-03-03T20:16:45;31.33;;;8.05;;
14766;SDS011;7475;53.558;9.970;2023-03-03T20:24:36;29.00;;;7.53;;
14766;SDS011;7475;53.558;9.970;2023-03-03T20:30:06;28.85;;;6.80;;